createdAt,value
2018-07-22T00:01:28.669Z,16.60
2018-07-22T00:03:57.437Z,15.60
2018-07-22T00:06:25.937Z,19.97
2018-07-22T00:08:55.001Z,23.03
2018-07-22T00:11:23.478Z,18.30
2018-07-22T00:13:52.001Z,23.70
2018-07-22T00:16:20.473Z,14.53
2018-07-22T00:18:49.009Z,16.07
2018-07-22T00:21:17.559Z,21.47
2018-07-22T00:23:46.060Z,40.93
2018-07-22T00:26:14.573Z,13.93
2018-07-22T00:28:42.724Z,21.20
2018-07-22T00:31:11.238Z,12.83
2018-07-22T00:33:39.673Z,22.03
2018-07-22T00:36:08.153Z,14.03
2018-07-22T00:38:36.640Z,21.87
2018-07-22T00:41:05.093Z,23.23
2018-07-22T00:43:33.577Z,21.73
2018-07-22T00:46:02.032Z,26.23
2018-07-22T00:48:30.512Z,20.87
2018-07-22T00:50:58.953Z,25.20
2018-07-22T00:53:27.413Z,15.97
2018-07-22T00:55:55.877Z,17.07
2018-07-22T00:58:24.360Z,20.87
2018-07-22T01:00:52.860Z,16.10
2018-07-22T01:03:21.317Z,17.90
2018-07-22T01:05:49.856Z,17.27
2018-07-22T01:08:18.308Z,13.90
2018-07-22T01:10:46.802Z,16.60
2018-07-22T01:13:15.310Z,16.13
2018-07-22T01:15:43.777Z,17.47
2018-07-22T01:18:12.299Z,14.03
2018-07-22T01:20:40.730Z,16.90
2018-07-22T01:23:09.221Z,20.87
2018-07-22T01:25:37.677Z,21.97
2018-07-22T01:28:06.153Z,12.33
2018-07-22T01:30:34.277Z,27.23
2018-07-22T01:33:02.781Z,18.33
2018-07-22T01:35:31.282Z,12.23
2018-07-22T01:37:59.767Z,22.73
2018-07-22T01:40:28.289Z,30.63
2018-07-22T01:42:56.769Z,17.60
2018-07-22T01:45:25.261Z,21.13
2018-07-22T01:47:53.717Z,17.17
2018-07-22T01:50:22.154Z,13.30
2018-07-22T01:52:50.645Z,27.90
2018-07-22T01:55:19.080Z,27.10
2018-07-22T01:57:47.561Z,20.40
2018-07-22T02:00:16.189Z,22.53
2018-07-22T02:02:44.813Z,22.37
2018-07-22T02:05:13.306Z,19.90
2018-07-22T02:07:41.770Z,20.57
2018-07-22T02:10:10.246Z,14.37
2018-07-22T02:12:38.738Z,22.67
2018-07-22T02:15:07.528Z,17.77
2018-07-22T02:17:36.012Z,17.13
2018-07-22T02:20:04.592Z,16.93
2018-07-22T02:22:33.053Z,23.90
2018-07-22T02:25:01.512Z,24.37
2018-07-22T02:27:29.970Z,18.93
2018-07-22T02:29:58.425Z,18.80
2018-07-22T02:32:26.850Z,22.03
2018-07-22T02:34:55.311Z,15.57
2018-07-22T02:37:23.742Z,17.93
2018-07-22T02:39:52.200Z,12.83
2018-07-22T02:42:20.654Z,24.13
2018-07-22T02:44:49.100Z,12.83
2018-07-22T02:47:17.540Z,20.77
2018-07-22T02:49:46.001Z,19.17
2018-07-22T02:52:14.460Z,20.57
2018-07-22T02:54:42.906Z,16.57
2018-07-22T02:57:11.349Z,17.63
2018-07-22T02:59:39.801Z,25.90
2018-07-22T03:02:08.268Z,21.20
2018-07-22T03:04:36.714Z,18.23
2018-07-22T03:07:05.145Z,18.67
2018-07-22T03:09:33.598Z,19.27
2018-07-22T03:12:02.067Z,21.10
2018-07-22T03:14:30.533Z,25.20
2018-07-22T03:16:58.973Z,16.33
2018-07-22T03:19:27.405Z,22.73
2018-07-22T03:21:55.861Z,21.23
2018-07-22T03:24:24.302Z,25.40
2018-07-22T03:26:52.756Z,25.17
2018-07-22T03:29:21.189Z,20.43
2018-07-22T03:31:49.644Z,19.57
2018-07-22T03:34:18.093Z,27.67
2018-07-22T03:36:46.528Z,18.27
2018-07-22T03:39:14.980Z,20.23
2018-07-22T03:41:43.443Z,18.73
2018-07-22T03:44:11.900Z,14.60
2018-07-22T03:46:40.372Z,22.17
2018-07-22T03:49:08.813Z,14.00
2018-07-22T03:51:37.253Z,19.60
2018-07-22T03:54:05.703Z,16.63
2018-07-22T03:56:34.141Z,16.53
2018-07-22T03:59:02.593Z,22.73
2018-07-22T04:01:31.020Z,21.87
2018-07-22T04:03:59.538Z,15.80
2018-07-22T04:06:27.664Z,18.07
2018-07-22T04:08:56.131Z,13.43
2018-07-22T04:11:24.577Z,28.27
2018-07-22T04:13:53.032Z,28.43
2018-07-22T04:16:21.520Z,20.30
2018-07-22T04:18:53.965Z,14.63
2018-07-22T04:21:23.852Z,15.90
2018-07-22T04:23:52.473Z,17.50
2018-07-22T04:26:21.661Z,16.77
2018-07-22T04:28:50.749Z,20.67
2018-07-22T04:31:19.200Z,16.57
2018-07-22T04:33:47.649Z,17.83
2018-07-22T04:36:16.110Z,21.53
2018-07-22T04:38:44.572Z,26.17
2018-07-22T04:41:13.025Z,20.50
2018-07-22T04:43:41.469Z,21.07
2018-07-22T04:46:09.928Z,19.40
2018-07-22T04:48:38.377Z,22.63
2018-07-22T04:51:06.919Z,21.53
2018-07-22T04:53:35.447Z,26.93
2018-07-22T04:56:04.166Z,22.03
2018-07-22T04:58:32.655Z,21.03
2018-07-22T05:01:01.113Z,18.60
2018-07-22T05:03:29.553Z,17.87
2018-07-22T05:05:58.035Z,20.50
2018-07-22T05:08:26.493Z,15.07
2018-07-22T05:10:54.936Z,22.27
2018-07-22T05:13:23.376Z,20.37
2018-07-22T05:15:51.824Z,15.67
2018-07-22T05:18:20.254Z,23.63
2018-07-22T05:20:48.733Z,19.67
2018-07-22T05:23:17.190Z,18.77
2018-07-22T05:25:45.781Z,20.67
2018-07-22T05:28:14.271Z,22.27
2018-07-22T05:30:42.656Z,29.03
2018-07-22T05:33:11.109Z,19.70
2018-07-22T05:35:39.587Z,18.13
2018-07-22T05:38:08.057Z,28.80
2018-07-22T05:40:36.552Z,21.10
2018-07-22T05:43:05.021Z,18.13
2018-07-22T05:45:33.454Z,18.90
2018-07-22T05:48:01.930Z,19.70
2018-07-22T05:50:30.398Z,21.60
2018-07-22T05:52:59.156Z,33.13
2018-07-22T05:55:27.605Z,23.97
2018-07-22T05:57:56.055Z,27.17
2018-07-22T06:00:24.573Z,28.70
2018-07-22T06:02:53.077Z,20.03
2018-07-22T06:05:21.560Z,20.33
2018-07-22T06:07:50.012Z,28.83
2018-07-22T06:10:18.470Z,21.37
2018-07-22T06:12:46.926Z,22.87
2018-07-22T06:15:15.408Z,20.43
2018-07-22T06:17:43.895Z,22.73
2018-07-22T06:20:12.344Z,24.63
2018-07-22T06:22:40.849Z,23.07
2018-07-22T06:25:09.332Z,22.13
2018-07-22T06:27:37.856Z,21.80
2018-07-22T06:30:06.760Z,20.30
2018-07-22T06:32:35.331Z,21.10
2018-07-22T06:35:03.817Z,19.57
2018-07-22T06:37:32.298Z,22.33
2018-07-22T06:40:00.765Z,20.20
2018-07-22T06:42:29.246Z,23.43
2018-07-22T06:44:58.023Z,28.07
2018-07-22T06:47:26.495Z,25.50
2018-07-22T06:49:54.969Z,17.20
2018-07-22T06:52:23.417Z,11.97
2018-07-22T06:54:51.902Z,29.70
2018-07-22T06:57:20.377Z,27.57
2018-07-22T06:59:48.850Z,20.93
2018-07-22T07:02:17.305Z,17.30
2018-07-22T07:04:45.781Z,27.17
2018-07-22T07:07:14.272Z,20.53
2018-07-22T07:09:42.739Z,20.30
2018-07-22T07:12:11.345Z,17.00
2018-07-22T07:14:39.950Z,20.50
2018-07-22T07:17:08.476Z,19.47
2018-07-22T07:19:36.994Z,19.60
2018-07-22T07:22:05.563Z,24.03
2018-07-22T07:24:34.022Z,22.80
2018-07-22T07:27:02.241Z,23.47
2018-07-22T07:29:30.789Z,22.33
2018-07-22T07:31:59.309Z,22.10
2018-07-22T07:34:27.990Z,23.70
2018-07-22T07:36:56.445Z,22.63
2018-07-22T07:39:24.953Z,18.70
2018-07-22T07:41:53.769Z,25.00
2018-07-22T07:44:22.249Z,22.03
2018-07-22T07:46:50.794Z,21.57
2018-07-22T07:49:19.290Z,17.40
2018-07-22T07:51:47.752Z,13.53
2018-07-22T07:54:15.892Z,25.27
2018-07-22T07:56:44.406Z,16.70
2018-07-22T07:59:12.908Z,15.07
2018-07-22T08:01:41.381Z,21.20
2018-07-22T08:04:09.842Z,22.70
2018-07-22T08:06:38.325Z,12.30
2018-07-22T08:09:07.761Z,11.00
2018-07-22T08:11:36.313Z,19.53
2018-07-22T08:14:04.844Z,23.67
2018-07-22T08:16:33.461Z,19.93
2018-07-22T08:19:01.977Z,10.37
2018-07-22T08:21:30.448Z,11.30
2018-07-22T08:23:58.925Z,13.53
2018-07-22T08:26:27.400Z,13.13
2018-07-22T08:29:32.245Z,13.17
2018-07-22T08:32:01.079Z,12.70
2018-07-22T08:34:29.778Z,10.40
2018-07-22T08:36:58.305Z,26.17
2018-07-22T08:39:28.164Z,15.30
2018-07-22T08:41:57.257Z,12.10
2018-07-22T08:44:25.819Z,20.53
2018-07-22T08:46:54.366Z,11.73
2018-07-22T08:49:22.841Z,10.20
2018-07-22T08:51:51.324Z,11.00
2018-07-22T08:54:19.754Z,7.73
2018-07-22T08:56:48.240Z,10.27
2018-07-22T08:59:16.717Z,11.33
2018-07-22T09:01:45.196Z,9.83
2018-07-22T09:04:13.694Z,11.63
2018-07-22T09:06:42.145Z,8.17
2018-07-22T09:09:11.840Z,20.93
2018-07-22T09:11:40.467Z,10.80
2018-07-22T09:14:09.788Z,12.63
2018-07-22T09:16:38.354Z,11.93
2018-07-22T09:19:06.499Z,15.40
2018-07-22T09:21:34.999Z,18.37
2018-07-22T09:24:03.496Z,24.90
2018-07-22T09:26:32.002Z,9.03
2018-07-22T09:29:00.457Z,6.57
2018-07-22T09:31:28.969Z,7.90
2018-07-22T09:33:57.148Z,5.40
2018-07-22T09:36:25.629Z,13.60
2018-07-22T09:38:54.061Z,6.17
2018-07-22T09:41:22.196Z,15.00
2018-07-22T09:43:50.670Z,20.83
2018-07-22T09:46:19.123Z,15.33
2018-07-22T09:48:47.636Z,14.20
2018-07-22T09:51:16.078Z,6.67
2018-07-22T09:53:44.588Z,5.83
2018-07-22T09:56:13.066Z,4.93
2018-07-22T09:58:41.524Z,7.20
2018-07-22T10:01:09.966Z,7.60
2018-07-22T10:03:38.474Z,12.13
2018-07-22T10:06:07.016Z,7.60
2018-07-22T10:08:35.477Z,7.60
2018-07-22T10:11:03.995Z,5.87
2018-07-22T10:13:32.443Z,9.00
2018-07-22T10:16:00.552Z,9.10
2018-07-22T10:18:29.048Z,4.63
2018-07-22T10:20:57.473Z,13.80
2018-07-22T10:23:26.016Z,4.70
2018-07-22T10:25:54.461Z,11.40
2018-07-22T10:28:22.620Z,5.70
2018-07-22T10:30:51.083Z,10.83
2018-07-22T10:33:19.579Z,9.13
2018-07-22T10:35:48.074Z,5.17
2018-07-22T10:38:16.493Z,9.17
2018-07-22T10:40:45.008Z,5.10
2018-07-22T10:43:13.491Z,11.87
2018-07-22T10:45:41.989Z,7.43
2018-07-22T10:48:10.483Z,10.20
2018-07-22T10:50:38.967Z,5.90
2018-07-22T10:53:07.402Z,5.67
2018-07-22T10:55:35.948Z,7.80
2018-07-22T10:58:04.065Z,6.30
2018-07-22T11:00:34.785Z,10.20
2018-07-22T11:03:04.712Z,8.67
2018-07-22T11:05:33.195Z,6.53
2018-07-22T11:08:01.348Z,11.87
2018-07-22T11:10:29.508Z,6.30
2018-07-22T11:12:57.933Z,11.13
2018-07-22T11:15:26.067Z,12.53
2018-07-22T11:17:54.544Z,5.07
2018-07-22T11:20:23.005Z,5.33
2018-07-22T11:22:51.464Z,5.90
2018-07-22T11:25:19.973Z,8.03
2018-07-22T11:27:48.422Z,9.60
2018-07-22T11:30:16.542Z,7.20
2018-07-22T11:32:45.017Z,8.30
2018-07-22T11:35:13.473Z,8.67
2018-07-22T11:37:41.945Z,7.73
2018-07-22T11:40:10.409Z,11.50
2018-07-22T11:42:38.849Z,13.57
2018-07-22T11:45:07.320Z,9.93
2018-07-22T11:47:36.059Z,9.50
2018-07-22T11:50:05.013Z,8.10
2018-07-22T11:52:33.473Z,14.47
2018-07-22T11:55:01.933Z,16.20
2018-07-22T11:57:30.393Z,18.10
2018-07-22T11:59:58.528Z,9.87
2018-07-22T12:02:27.029Z,5.90
2018-07-22T12:04:55.465Z,10.20
2018-07-22T12:07:23.931Z,6.40
2018-07-22T12:09:52.412Z,6.07
2018-07-22T12:12:20.935Z,22.23
2018-07-22T12:14:49.407Z,16.93
2018-07-22T12:17:17.925Z,8.30
2018-07-22T12:19:46.384Z,6.80
2018-07-22T12:22:14.909Z,7.03
2018-07-22T12:24:43.388Z,8.40
2018-07-22T12:27:11.940Z,10.07
2018-07-22T12:29:40.411Z,9.70
2018-07-22T12:32:08.913Z,11.20
2018-07-22T12:34:37.405Z,15.63
2018-07-22T12:37:05.952Z,5.93
2018-07-22T12:39:34.422Z,6.07
2018-07-22T12:42:02.952Z,8.33
2018-07-22T12:44:31.441Z,9.43
2018-07-22T12:46:59.928Z,8.50
2018-07-22T12:49:28.417Z,6.73
2018-07-22T12:51:56.897Z,10.10
2018-07-22T12:54:25.382Z,6.93
2018-07-22T12:56:53.839Z,6.57
2018-07-22T12:59:22.311Z,7.17
2018-07-22T13:01:50.761Z,7.07
2018-07-22T13:04:19.317Z,13.43
2018-07-22T13:06:47.796Z,16.00
2018-07-22T13:09:16.268Z,6.80
2018-07-22T13:11:44.693Z,9.87
2018-07-22T13:14:13.185Z,12.10
2018-07-22T13:16:41.298Z,8.90
2018-07-22T13:19:09.767Z,6.27
2018-07-22T13:21:38.241Z,9.07
2018-07-22T13:24:06.691Z,9.10
2018-07-22T13:26:35.944Z,7.13
2018-07-22T13:29:04.426Z,17.63
2018-07-22T13:31:32.995Z,7.50
2018-07-22T13:34:01.440Z,5.93
2018-07-22T13:36:29.894Z,6.37
2018-07-22T13:38:58.089Z,14.57
2018-07-22T13:41:26.545Z,8.03
2018-07-22T13:43:55.626Z,8.80
2018-07-22T13:46:24.085Z,6.37
2018-07-22T13:48:52.528Z,6.90
2018-07-22T13:51:21.000Z,10.87
2018-07-22T13:53:49.477Z,9.60
2018-07-22T13:56:17.933Z,10.40
2018-07-22T13:58:46.397Z,10.13
2018-07-22T14:01:14.907Z,8.60
2018-07-22T14:03:43.385Z,5.93
2018-07-22T14:06:11.843Z,6.20
2018-07-22T14:08:40.297Z,7.70
2018-07-22T14:11:08.762Z,5.80
2018-07-22T14:13:37.196Z,6.47
2018-07-22T14:16:05.670Z,6.27
2018-07-22T14:18:34.124Z,14.43
2018-07-22T14:21:02.556Z,9.00
2018-07-22T14:23:31.025Z,7.07
2018-07-22T14:25:59.494Z,5.97
2018-07-22T14:28:27.981Z,8.07
2018-07-22T14:30:56.396Z,6.33
2018-07-22T14:33:24.873Z,8.47
2018-07-22T14:35:53.362Z,14.10
2018-07-22T14:38:21.816Z,7.67
2018-07-22T14:40:50.373Z,8.33
2018-07-22T14:43:18.764Z,6.20
2018-07-22T14:45:47.244Z,7.00
2018-07-22T14:48:15.713Z,4.87
2018-07-22T14:50:44.169Z,5.70
2018-07-22T14:53:12.645Z,6.13
2018-07-22T14:55:41.090Z,11.10
2018-07-22T14:58:09.537Z,7.13
2018-07-22T15:00:37.981Z,6.67
2018-07-22T15:03:06.775Z,7.67
2018-07-22T15:05:35.232Z,10.70
2018-07-22T15:08:03.365Z,9.17
2018-07-22T15:10:31.789Z,16.07
2018-07-22T15:13:00.261Z,15.07
2018-07-22T15:15:28.706Z,6.47
2018-07-22T15:17:57.212Z,8.63
2018-07-22T15:20:25.693Z,11.97
2018-07-22T15:22:53.927Z,9.47
2018-07-22T15:25:22.386Z,9.70
2018-07-22T15:27:50.870Z,11.23
2018-07-22T15:30:19.368Z,11.07
2018-07-22T15:32:47.490Z,6.10
2018-07-22T15:35:15.994Z,13.90
2018-07-22T15:37:44.453Z,8.50
2018-07-22T15:40:12.900Z,10.00
2018-07-22T15:42:41.490Z,10.30
2018-07-22T15:45:09.965Z,9.40
2018-07-22T15:47:38.581Z,5.93
2018-07-22T15:50:07.081Z,8.10
2018-07-22T15:52:35.537Z,7.90
2018-07-22T15:55:03.691Z,5.13
2018-07-22T15:57:32.128Z,14.10
2018-07-22T16:00:00.608Z,18.27
2018-07-22T16:02:29.168Z,9.93
2018-07-22T16:04:57.623Z,9.17
2018-07-22T16:07:26.067Z,8.83
2018-07-22T16:09:54.536Z,9.37
2018-07-22T16:12:22.988Z,15.47
2018-07-22T16:14:51.534Z,8.30
2018-07-22T16:17:19.673Z,14.10
2018-07-22T16:19:48.214Z,7.80
2018-07-22T16:22:16.698Z,11.30
2018-07-22T16:24:45.217Z,7.40
2018-07-22T16:27:13.476Z,8.50
2018-07-22T16:29:42.293Z,7.60
2018-07-22T16:32:10.818Z,12.47
2018-07-22T16:34:39.323Z,11.40
2018-07-22T16:37:07.943Z,12.40
2018-07-22T16:39:36.436Z,12.53
2018-07-22T16:42:04.904Z,11.70
2018-07-22T16:44:33.826Z,19.00
2018-07-22T16:47:02.390Z,8.90
2018-07-22T16:49:30.863Z,20.53
2018-07-22T16:51:59.333Z,9.63
2018-07-22T16:54:27.805Z,20.37
2018-07-22T16:56:56.276Z,15.63
2018-07-22T16:59:24.769Z,20.00
2018-07-22T17:01:53.212Z,13.80
2018-07-22T17:04:21.732Z,20.90
2018-07-22T17:06:50.222Z,14.80
2018-07-22T17:09:18.684Z,24.23
2018-07-22T17:11:47.185Z,9.03
2018-07-22T17:14:15.312Z,7.30
2018-07-22T17:16:43.806Z,19.87
2018-07-22T17:19:12.255Z,11.27
2018-07-22T17:21:40.942Z,19.20
2018-07-22T17:24:09.421Z,11.90
2018-07-22T17:26:37.884Z,19.73
2018-07-22T17:29:06.338Z,17.40
2018-07-22T17:31:34.798Z,11.53
2018-07-22T17:34:03.497Z,8.13
2018-07-22T17:36:31.954Z,10.90
2018-07-22T17:39:00.501Z,13.53
2018-07-22T17:41:28.921Z,25.83
2018-07-22T17:43:57.370Z,9.83
2018-07-22T17:46:25.845Z,10.37
2018-07-22T17:48:54.290Z,11.17
2018-07-22T17:51:22.745Z,15.77
2018-07-22T17:53:52.077Z,15.23
2018-07-22T17:56:20.539Z,17.20
2018-07-22T17:58:48.995Z,7.70
2018-07-22T18:01:17.570Z,8.17
2018-07-22T18:03:46.046Z,17.80
2018-07-22T18:06:14.497Z,16.43
2018-07-22T18:08:42.952Z,11.33
2018-07-22T18:11:11.402Z,16.87
2018-07-22T18:13:39.860Z,9.23
2018-07-22T18:16:08.341Z,18.70
2018-07-22T18:18:36.811Z,12.93
2018-07-22T18:21:05.324Z,26.73
2018-07-22T18:23:33.801Z,14.93
2018-07-22T18:26:02.270Z,8.40
2018-07-22T18:28:30.776Z,14.73
2018-07-22T18:30:59.261Z,11.80
2018-07-22T18:33:27.741Z,14.03
2018-07-22T18:35:56.192Z,14.60
2018-07-22T18:38:24.669Z,15.40
2018-07-22T18:40:53.173Z,15.20
2018-07-22T18:43:21.641Z,22.03
2018-07-22T18:45:50.146Z,10.70
2018-07-22T18:48:18.684Z,10.90
2018-07-22T18:50:46.790Z,23.70
2018-07-22T18:53:14.917Z,20.43
2018-07-22T18:55:43.366Z,13.20
2018-07-22T18:58:11.827Z,13.57
2018-07-22T19:00:40.301Z,11.43
2018-07-22T19:03:08.754Z,14.30
2018-07-22T19:05:37.235Z,8.27
2018-07-22T19:08:11.637Z,18.50
2018-07-22T19:10:40.134Z,15.37
2018-07-22T19:13:08.617Z,13.23
2018-07-22T19:15:36.740Z,11.53
2018-07-22T19:18:05.264Z,19.00
2018-07-22T19:20:33.690Z,14.23
2018-07-22T19:23:02.162Z,15.43
2018-07-22T19:25:30.621Z,24.87
2018-07-22T19:27:59.070Z,11.93
2018-07-22T19:30:27.693Z,24.07
2018-07-22T19:32:56.137Z,17.80
2018-07-22T19:35:24.259Z,10.87
2018-07-22T19:37:52.814Z,15.60
2018-07-22T19:40:21.346Z,16.23
2018-07-22T19:42:50.033Z,18.63
2018-07-22T19:45:18.465Z,23.63
2018-07-22T19:47:47.304Z,23.43
2018-07-22T19:50:15.744Z,17.63
2018-07-22T19:52:44.181Z,23.43
2018-07-22T19:55:12.649Z,19.10
2018-07-22T19:57:41.078Z,28.70
2018-07-22T20:00:09.234Z,21.50
2018-07-22T20:02:37.672Z,22.07
2018-07-22T20:05:06.274Z,15.63
2018-07-22T20:07:34.730Z,19.47
2018-07-22T20:10:03.237Z,16.23
2018-07-22T20:12:31.419Z,13.37
2018-07-22T20:14:59.869Z,17.43
2018-07-22T20:17:28.310Z,17.53
2018-07-22T20:19:56.862Z,11.87
2018-07-22T20:22:25.314Z,17.53
2018-07-22T20:24:53.924Z,13.20
2018-07-22T20:27:22.870Z,17.77
2018-07-22T20:29:51.333Z,11.63
2018-07-22T20:32:20.325Z,12.57
2018-07-22T20:34:48.784Z,22.27
2018-07-22T20:37:17.245Z,15.53
2018-07-22T20:39:45.953Z,17.40
2018-07-22T20:42:14.405Z,17.03
2018-07-22T20:44:42.881Z,18.80
2018-07-22T20:47:11.657Z,17.30
2018-07-22T20:49:40.090Z,16.33
2018-07-22T20:52:08.586Z,18.27
2018-07-22T20:54:37.111Z,16.30
2018-07-22T20:57:06.023Z,10.90
2018-07-22T20:59:34.609Z,15.30
2018-07-22T21:02:03.043Z,12.80
2018-07-22T21:04:31.510Z,13.73
2018-07-22T21:06:59.926Z,23.53
2018-07-22T21:09:28.385Z,12.90
2018-07-22T21:13:08.120Z,11.10
2018-07-22T21:15:36.618Z,15.30
2018-07-22T21:18:05.114Z,16.37
2018-07-22T21:20:33.589Z,12.27
2018-07-22T21:23:02.003Z,13.67
2018-07-22T21:25:30.453Z,12.00
2018-07-22T21:27:58.903Z,10.93
2018-07-22T21:30:27.329Z,9.27
2018-07-22T21:32:55.778Z,6.47
2018-07-22T21:35:24.262Z,14.33
2018-07-22T21:37:52.709Z,7.30
2018-07-22T21:40:21.194Z,5.27
2018-07-22T21:42:49.634Z,7.57
2018-07-22T21:45:18.041Z,8.10
2018-07-22T21:47:46.475Z,8.77
2018-07-22T21:50:14.985Z,6.93
2018-07-22T21:52:43.444Z,5.97
2018-07-22T21:55:11.937Z,6.43
2018-07-22T21:57:40.389Z,12.10
2018-07-22T22:00:20.702Z,5.33
2018-07-22T22:02:49.157Z,11.03
2018-07-22T22:05:17.841Z,6.87
2018-07-22T22:07:46.290Z,6.67
2018-07-22T22:10:14.761Z,17.97
2018-07-22T22:12:42.891Z,7.00
2018-07-22T22:15:18.955Z,5.10
2018-07-22T22:17:47.426Z,5.30
2018-07-22T22:20:15.865Z,9.50
2018-07-22T22:22:44.350Z,11.00
2018-07-22T22:25:12.780Z,5.37
2018-07-22T22:27:40.871Z,5.20
2018-07-22T22:30:11.323Z,5.43
2018-07-22T22:32:39.802Z,9.83
2018-07-22T22:35:08.508Z,10.00
2018-07-22T22:37:36.929Z,17.57
2018-07-22T22:40:05.446Z,6.07
2018-07-22T22:42:33.907Z,6.00
2018-07-22T22:45:02.329Z,14.00
2018-07-22T22:47:30.768Z,7.00
2018-07-22T22:49:59.268Z,14.67
2018-07-22T22:52:27.758Z,7.10
2018-07-22T22:54:56.528Z,6.50
2018-07-22T22:57:25.062Z,7.43
2018-07-22T22:59:53.476Z,5.40
2018-07-22T23:02:21.961Z,11.00
2018-07-22T23:04:50.690Z,12.93
2018-07-22T23:07:19.141Z,8.60
2018-07-22T23:09:47.583Z,6.43
2018-07-22T23:12:15.691Z,7.20
2018-07-22T23:14:44.124Z,7.17
2018-07-22T23:17:12.552Z,7.10
2018-07-22T23:19:41.108Z,10.90
2018-07-22T23:22:09.526Z,8.60
2018-07-22T23:24:37.959Z,13.70
2018-07-22T23:27:06.391Z,6.53
2018-07-22T23:29:34.844Z,5.87
2018-07-22T23:32:03.321Z,7.00
2018-07-22T23:34:31.731Z,5.10
2018-07-22T23:37:00.184Z,10.20
2018-07-22T23:39:28.769Z,14.20
2018-07-22T23:41:57.225Z,7.73
2018-07-22T23:44:25.370Z,5.40
2018-07-22T23:46:53.829Z,5.53
2018-07-22T23:49:22.238Z,9.10
2018-07-22T23:51:50.662Z,4.40
2018-07-22T23:54:19.080Z,10.77
2018-07-22T23:56:47.573Z,5.13
2018-07-22T23:59:15.988Z,4.97
